sensor_id;sensor_type;location;lat;lon;timestamp;pressure;altitude;pressure_sealevel;temperature;humidity
60089;BME280;45961;53.574;55.878;2023-08-08T00:00:58;99114.94;;;17.97;86.79
60089;BME280;45961;53.574;55.878;2023-08-08T00:01:59;99115.78;;;17.97;86.79
60089;BME280;45961;53.574;55.878;2023-08-08T00:03:00;99110.47;;;17.99;86.36
60089;BME280;45961;53.574;55.878;2023-08-08T00:04:01;99110.56;;;17.96;86.42
60089;BME280;45961;53.574;55.878;2023-08-08T00:05:02;99124.69;;;17.92;86.67
60089;BME280;45961;53.574;55.878;2023-08-08T00:06:03;99123.28;;;17.83;87.60
60089;BME280;45961;53.574;55.878;2023-08-08T00:07:04;99119.94;;;17.80;87.68
60089;BME280;45961;53.574;55.878;2023-08-08T00:08:05;99126.75;;;17.84;87.68
60089;BME280;45961;53.574;55.878;2023-08-08T00:09:06;99129.44;;;17.82;87.73
60089;BME280;45961;53.574;55.878;2023-08-08T00:10:07;99121.34;;;17.88;87.77
60089;BME280;45961;53.574;55.878;2023-08-08T00:11:09;99125.06;;;17.83;88.07
60089;BME280;45961;53.574;55.878;2023-08-08T00:12:09;99127.50;;;17.87;88.12
60089;BME280;45961;53.574;55.878;2023-08-08T00:13:10;99131.63;;;17.93;87.98
60089;BME280;45961;53.574;55.878;2023-08-08T00:14:11;99129.81;;;17.95;88.04
60089;BME280;45961;53.574;55.878;2023-08-08T00:15:12;99124.38;;;18.01;87.50
60089;BME280;45961;53.574;55.878;2023-08-08T00:16:13;99134.69;;;18.04;87.57
60089;BME280;45961;53.574;55.878;2023-08-08T00:17:14;99129.72;;;17.98;87.64
60089;BME280;45961;53.574;55.878;2023-08-08T00:18:14;99130.69;;;17.95;87.51
60089;BME280;45961;53.574;55.878;2023-08-08T00:19:15;99134.22;;;17.94;87.76
60089;BME280;45961;53.574;55.878;2023-08-08T00:20:16;99125.44;;;17.95;87.94
60089;BME280;45961;53.574;55.878;2023-08-08T00:21:17;99135.97;;;17.94;87.99
60089;BME280;45961;53.574;55.878;2023-08-08T00:22:18;99130.84;;;17.91;88.40
60089;BME280;45961;53.574;55.878;2023-08-08T00:23:18;99135.25;;;17.90;88.50
60089;BME280;45961;53.574;55.878;2023-08-08T00:24:19;99135.28;;;17.89;88.38
60089;BME280;45961;53.574;55.878;2023-08-08T00:25:20;99143.09;;;17.90;88.65
60089;BME280;45961;53.574;55.878;2023-08-08T00:26:21;99134.22;;;17.94;88.92
60089;BME280;45961;53.574;55.878;2023-08-08T00:27:21;99137.69;;;17.95;88.86
60089;BME280;45961;53.574;55.878;2023-08-08T00:28:22;99135.91;;;17.95;88.77
60089;BME280;45961;53.574;55.878;2023-08-08T00:29:23;99137.47;;;18.01;88.82
60089;BME280;45961;53.574;55.878;2023-08-08T00:30:24;99138.34;;;18.00;89.18
60089;BME280;45961;53.574;55.878;2023-08-08T00:31:25;99143.47;;;18.03;89.58
60089;BME280;45961;53.574;55.878;2023-08-08T00:32:26;99141.66;;;18.05;89.78
60089;BME280;45961;53.574;55.878;2023-08-08T00:33:27;99144.28;;;18.05;89.87
60089;BME280;45961;53.574;55.878;2023-08-08T00:34:27;99139.06;;;18.05;89.76
60089;BME280;45961;53.574;55.878;2023-08-08T00:35:29;99136.28;;;18.08;89.71
60089;BME280;45961;53.574;55.878;2023-08-08T00:36:29;99139.72;;;18.10;89.92
60089;BME280;45961;53.574;55.878;2023-08-08T00:37:30;99136.19;;;18.11;89.59
60089;BME280;45961;53.574;55.878;2023-08-08T00:38:32;99136.25;;;18.10;89.87
60089;BME280;45961;53.574;55.878;2023-08-08T00:39:33;99138.88;;;18.10;89.89
60089;BME280;45961;53.574;55.878;2023-08-08T00:40:33;99133.47;;;18.13;89.67
60089;BME280;45961;53.574;55.878;2023-08-08T00:41:34;99128.13;;;18.16;89.29
60089;BME280;45961;53.574;55.878;2023-08-08T00:42:35;99136.81;;;18.18;89.01
60089;BME280;45961;53.574;55.878;2023-08-08T00:43:37;99135.94;;;18.17;89.08
60089;BME280;45961;53.574;55.878;2023-08-08T00:44:37;99134.22;;;18.16;89.19
60089;BME280;45961;53.574;55.878;2023-08-08T00:45:39;99134.84;;;18.23;89.00
60089;BME280;45961;53.574;55.878;2023-08-08T00:46:42;99134.09;;;18.19;88.78
60089;BME280;45961;53.574;55.878;2023-08-08T00:47:43;99137.56;;;18.20;89.12
60089;BME280;45961;53.574;55.878;2023-08-08T00:48:43;99137.69;;;18.17;89.33
60089;BME280;45961;53.574;55.878;2023-08-08T00:49:44;99127.06;;;18.21;89.34
60089;BME280;45961;53.574;55.878;2023-08-08T00:50:47;99142.63;;;18.24;89.28
60089;BME280;45961;53.574;55.878;2023-08-08T00:51:48;99134.78;;;18.24;89.15
60089;BME280;45961;53.574;55.878;2023-08-08T00:52:51;99130.22;;;18.30;88.88
60089;BME280;45961;53.574;55.878;2023-08-08T00:53:52;99140.44;;;18.36;88.59
60089;BME280;45961;53.574;55.878;2023-08-08T00:54:54;99124.53;;;18.40;88.45
60089;BME280;45961;53.574;55.878;2023-08-08T00:55:55;99128.72;;;18.44;88.15
60089;BME280;45961;53.574;55.878;2023-08-08T00:56:56;99130.31;;;18.48;87.98
60089;BME280;45961;53.574;55.878;2023-08-08T00:57:57;99132.69;;;18.55;87.44
60089;BME280;45961;53.574;55.878;2023-08-08T00:58:58;99134.19;;;18.60;86.89
60089;BME280;45961;53.574;55.878;2023-08-08T00:59:59;99132.31;;;18.64;86.37
60089;BME280;45961;53.574;55.878;2023-08-08T01:01:03;99132.31;;;18.64;86.26
60089;BME280;45961;53.574;55.878;2023-08-08T01:02:04;99136.78;;;18.62;85.97
60089;BME280;45961;53.574;55.878;2023-08-08T01:03:05;99134.59;;;18.51;85.68
60089;BME280;45961;53.574;55.878;2023-08-08T01:04:05;99133.94;;;18.46;85.73
60089;BME280;45961;53.574;55.878;2023-08-08T01:05:07;99135.63;;;18.25;85.78
60089;BME280;45961;53.574;55.878;2023-08-08T01:06:10;99135.31;;;18.11;85.94
60089;BME280;45961;53.574;55.878;2023-08-08T01:07:25;99139.72;;;18.10;86.13
60089;BME280;45961;53.574;55.878;2023-08-08T01:08:33;99140.94;;;18.02;86.24
60089;BME280;45961;53.574;55.878;2023-08-08T01:09:37;99140.09;;;18.01;86.72
60089;BME280;45961;53.574;55.878;2023-08-08T01:10:39;99133.84;;;18.04;86.56
60089;BME280;45961;53.574;55.878;2023-08-08T01:11:42;99135.41;;;18.09;86.71
60089;BME280;45961;53.574;55.878;2023-08-08T01:12:50;99130.31;;;18.05;86.32
60089;BME280;45961;53.574;55.878;2023-08-08T01:13:52;99133.66;;;18.08;86.31
60089;BME280;45961;53.574;55.878;2023-08-08T01:14:54;99140.94;;;18.02;86.25
60089;BME280;45961;53.574;55.878;2023-08-08T01:15:55;99138.31;;;18.02;86.19
60089;BME280;45961;53.574;55.878;2023-08-08T01:16:57;99121.88;;;17.98;86.05
60089;BME280;45961;53.574;55.878;2023-08-08T01:18:09;99133.41;;;17.92;86.21
60089;BME280;45961;53.574;55.878;2023-08-08T01:19:14;99130.84;;;17.91;86.20
60089;BME280;45961;53.574;55.878;2023-08-08T01:20:19;99124.94;;;17.86;86.64
60089;BME280;45961;53.574;55.878;2023-08-08T01:21:27;99135.19;;;17.92;86.66
60089;BME280;45961;53.574;55.878;2023-08-08T01:22:43;99130.56;;;17.98;86.68
60089;BME280;45961;53.574;55.878;2023-08-08T01:23:52;99130.50;;;18.00;86.26
60089;BME280;45961;53.574;55.878;2023-08-08T01:24:53;99139.16;;;18.02;86.35
60089;BME280;45961;53.574;55.878;2023-08-08T01:25:54;99136.53;;;18.02;86.12
60089;BME280;45961;53.574;55.878;2023-08-08T01:26:56;99136.44;;;18.05;86.28
60089;BME280;45961;53.574;55.878;2023-08-08T01:27:56;99136.44;;;18.05;86.42
60089;BME280;45961;53.574;55.878;2023-08-08T01:28:57;99133.47;;;18.13;86.04
60089;BME280;45961;53.574;55.878;2023-08-08T01:29:58;99124.84;;;18.11;86.22
60089;BME280;45961;53.574;55.878;2023-08-08T01:30:59;99127.41;;;18.12;86.04
60089;BME280;45961;53.574;55.878;2023-08-08T01:31:59;99127.47;;;18.11;86.25
60089;BME280;45961;53.574;55.878;2023-08-08T01:33:00;99130.72;;;18.17;86.17
60089;BME280;45961;53.574;55.878;2023-08-08T01:34:03;99131.38;;;18.22;85.73
60089;BME280;45961;53.574;55.878;2023-08-08T01:35:04;99129.53;;;18.24;85.81
60089;BME280;45961;53.574;55.878;2023-08-08T01:36:07;99130.34;;;18.27;85.99
60089;BME280;45961;53.574;55.878;2023-08-08T01:37:16;99124.97;;;18.30;85.60
60089;BME280;45961;53.574;55.878;2023-08-08T01:38:23;99126.06;;;18.24;85.83
60089;BME280;45961;53.574;55.878;2023-08-08T01:39:29;99131.56;;;18.18;86.53
60089;BME280;45961;53.574;55.878;2023-08-08T01:40:30;99127.41;;;18.12;86.67
60089;BME280;45961;53.574;55.878;2023-08-08T01:41:32;99124.91;;;18.09;87.30
60089;BME280;45961;53.574;55.878;2023-08-08T01:42:33;99134.59;;;18.07;87.30
60089;BME280;45961;53.574;55.878;2023-08-08T01:43:34;99128.31;;;18.11;87.28
60089;BME280;45961;53.574;55.878;2023-08-08T01:44:35;99131.84;;;18.10;87.65
60089;BME280;45961;53.574;55.878;2023-08-08T01:45:37;99128.50;;;18.07;88.08
60089;BME280;45961;53.574;55.878;2023-08-08T01:46:39;99124.38;;;18.01;88.78
60089;BME280;45961;53.574;55.878;2023-08-08T01:47:39;99130.56;;;17.98;88.89
60089;BME280;45961;53.574;55.878;2023-08-08T01:48:44;99124.22;;;18.04;88.83
60089;BME280;45961;53.574;55.878;2023-08-08T01:49:44;99134.59;;;18.07;88.85
60089;BME280;45961;53.574;55.878;2023-08-08T01:50:45;99125.59;;;18.14;88.79
60089;BME280;45961;53.574;55.878;2023-08-08T01:51:46;99125.41;;;18.19;87.99
60089;BME280;45961;53.574;55.878;2023-08-08T01:52:47;99122.41;;;18.28;87.89
60089;BME280;45961;53.574;55.878;2023-08-08T01:53:48;99120.69;;;18.49;87.38
60089;BME280;45961;53.574;55.878;2023-08-08T01:54:48;99121.41;;;18.53;86.48
60089;BME280;45961;53.574;55.878;2023-08-08T01:55:49;99117.94;;;18.52;86.48
60089;BME280;45961;53.574;55.878;2023-08-08T01:56:50;99112.97;;;18.46;86.68
60089;BME280;45961;53.574;55.878;2023-08-08T01:57:51;99113.94;;;18.43;86.78
60089;BME280;45961;53.574;55.878;2023-08-08T01:58:51;99122.66;;;18.44;86.85
60089;BME280;45961;53.574;55.878;2023-08-08T01:59:52;99113.00;;;18.44;87.45
60089;BME280;45961;53.574;55.878;2023-08-08T02:00:53;99117.94;;;18.52;87.44
60089;BME280;45961;53.574;55.878;2023-08-08T02:01:54;99128.38;;;18.54;87.28
60089;BME280;45961;53.574;55.878;2023-08-08T02:02:56;99121.09;;;18.60;87.40
60089;BME280;45961;53.574;55.878;2023-08-08T02:03:57;99129.66;;;18.65;86.82
60089;BME280;45961;53.574;55.878;2023-08-08T02:04:57;99123.41;;;18.68;87.02
60089;BME280;45961;53.574;55.878;2023-08-08T02:05:58;99131.19;;;18.71;86.86
60089;BME280;45961;53.574;55.878;2023-08-08T02:06:59;99130.00;;;18.56;87.11
60089;BME280;45961;53.574;55.878;2023-08-08T02:08:00;99121.19;;;18.59;87.09
60089;BME280;45961;53.574;55.878;2023-08-08T02:09:01;99121.63;;;18.68;87.03
60089;BME280;45961;53.574;55.878;2023-08-08T02:10:02;99121.47;;;18.73;86.86
60089;BME280;45961;53.574;55.878;2023-08-08T02:11:04;99117.75;;;18.79;87.02
60089;BME280;45961;53.574;55.878;2023-08-08T02:12:05;99118.81;;;18.95;86.89
60089;BME280;45961;53.574;55.878;2023-08-08T02:13:07;99122.00;;;19.22;86.61
60089;BME280;45961;53.574;55.878;2023-08-08T02:14:08;99124.16;;;19.33;86.61
60089;BME280;45961;53.574;55.878;2023-08-08T02:15:08;99111.63;;;19.39;85.88
60089;BME280;45961;53.574;55.878;2023-08-08T02:16:09;99119.34;;;19.42;85.58
60089;BME280;45961;53.574;55.878;2023-08-08T02:17:10;99118.31;;;19.46;85.25
60089;BME280;45961;53.574;55.878;2023-08-08T02:18:11;99111.38;;;19.64;85.00
60089;BME280;45961;53.574;55.878;2023-08-08T02:19:32;99108.41;;;19.72;84.26
60089;BME280;45961;53.574;55.878;2023-08-08T02:20:33;99109.38;;;19.69;84.00
60089;BME280;45961;53.574;55.878;2023-08-08T02:21:33;99113.88;;;19.67;83.83
60089;BME280;45961;53.574;55.878;2023-08-08T02:22:35;99105.00;;;19.89;83.32
60089;BME280;45961;53.574;55.878;2023-08-08T02:23:37;99112.59;;;19.95;82.69
60089;BME280;45961;53.574;55.878;2023-08-08T02:24:40;99103.06;;;19.92;82.23
60089;BME280;45961;53.574;55.878;2023-08-08T02:25:44;99111.59;;;19.97;82.37
60089;BME280;45961;53.574;55.878;2023-08-08T02:26:48;99105.47;;;19.97;82.07
60089;BME280;45961;53.574;55.878;2023-08-08T02:27:52;99107.22;;;19.98;82.07
60089;BME280;45961;53.574;55.878;2023-08-08T02:28:53;99107.00;;;20.03;81.98
60089;BME280;45961;53.574;55.878;2023-08-08T02:29:55;99106.06;;;20.04;81.70
60089;BME280;45961;53.574;55.878;2023-08-08T02:30:58;99107.63;;;20.08;81.05
60089;BME280;45961;53.574;55.878;2023-08-08T02:32:00;99104.75;;;20.12;80.70
60089;BME280;45961;53.574;55.878;2023-08-08T02:33:02;99102.75;;;20.17;80.64
60089;BME280;45961;53.574;55.878;2023-08-08T02:34:03;99105.34;;;20.19;80.95
60089;BME280;45961;53.574;55.878;2023-08-08T02:35:05;99106.03;;;20.23;80.15
60089;BME280;45961;53.574;55.878;2023-08-08T02:36:06;99099.84;;;20.24;80.18
60089;BME280;45961;53.574;55.878;2023-08-08T02:37:08;99103.09;;;20.29;79.69
60089;BME280;45961;53.574;55.878;2023-08-08T02:38:09;99103.88;;;20.31;79.63
60089;BME280;45961;53.574;55.878;2023-08-08T02:39:10;99103.56;;;20.37;79.72
60089;BME280;45961;53.574;55.878;2023-08-08T02:40:12;99102.59;;;20.39;79.28
60089;BME280;45961;53.574;55.878;2023-08-08T02:41:13;99102.25;;;20.45;79.19
60089;BME280;45961;53.574;55.878;2023-08-08T02:42:16;99100.63;;;20.79;79.02
60089;BME280;45961;53.574;55.878;2023-08-08T02:43:18;99102.81;;;21.22;77.41
60089;BME280;45961;53.574;55.878;2023-08-08T02:44:19;99096.81;;;21.53;76.97
60089;BME280;45961;53.574;55.878;2023-08-08T02:45:20;99098.00;;;21.47;76.61
60089;BME280;45961;53.574;55.878;2023-08-08T02:46:24;99088.88;;;21.37;77.00
60089;BME280;45961;53.574;55.878;2023-08-08T02:47:25;99083.78;;;21.34;76.58
60089;BME280;45961;53.574;55.878;2023-08-08T02:48:33;99092.63;;;21.15;76.70
60089;BME280;45961;53.574;55.878;2023-08-08T02:49:35;99091.47;;;21.04;77.87
60089;BME280;45961;53.574;55.878;2023-08-08T02:50:37;99093.09;;;20.89;78.64
60089;BME280;45961;53.574;55.878;2023-08-08T02:51:41;99088.69;;;20.89;78.99
60089;BME280;45961;53.574;55.878;2023-08-08T02:52:48;99092.16;;;20.90;79.57
60089;BME280;45961;53.574;55.878;2023-08-08T02:53:51;99094.41;;;20.98;79.33
60089;BME280;45961;53.574;55.878;2023-08-08T02:54:52;99098.78;;;21.32;79.17
60089;BME280;45961;53.574;55.878;2023-08-08T02:55:53;99098.38;;;21.73;78.35
60089;BME280;45961;53.574;55.878;2023-08-08T02:56:55;99096.31;;;21.93;77.06
60089;BME280;45961;53.574;55.878;2023-08-08T02:57:56;99105.69;;;21.99;76.77
60089;BME280;45961;53.574;55.878;2023-08-08T02:58:57;99103.25;;;22.28;75.73
60089;BME280;45961;53.574;55.878;2023-08-08T02:59:59;99099.38;;;22.49;74.35
60089;BME280;45961;53.574;55.878;2023-08-08T03:01:00;99094.38;;;22.59;73.61
60089;BME280;45961;53.574;55.878;2023-08-08T03:02:00;99096.53;;;22.82;73.33
60089;BME280;45961;53.574;55.878;2023-08-08T03:03:02;99093.69;;;23.01;72.88
60089;BME280;45961;53.574;55.878;2023-08-08T03:04:05;99093.81;;;23.28;72.17
60089;BME280;45961;53.574;55.878;2023-08-08T03:05:06;99097.94;;;23.18;71.61
60089;BME280;45961;53.574;55.878;2023-08-08T03:06:07;99092.22;;;23.40;70.99
60089;BME280;45961;53.574;55.878;2023-08-08T03:07:08;99095.59;;;23.42;70.68
60089;BME280;45961;53.574;55.878;2023-08-08T03:08:11;99095.31;;;23.61;70.49
60089;BME280;45961;53.574;55.878;2023-08-08T03:09:15;99088.81;;;23.67;70.14
60089;BME280;45961;53.574;55.878;2023-08-08T03:10:16;99078.88;;;23.84;69.53
60089;BME280;45961;53.574;55.878;2023-08-08T03:11:19;99078.97;;;23.83;69.61
60089;BME280;45961;53.574;55.878;2023-08-08T03:12:23;99076.25;;;23.84;69.22
60089;BME280;45961;53.574;55.878;2023-08-08T03:13:28;99080.94;;;23.94;69.14
60089;BME280;45961;53.574;55.878;2023-08-08T03:14:30;99079.94;;;24.09;68.40
60089;BME280;45961;53.574;55.878;2023-08-08T03:15:32;99079.22;;;24.20;67.89
60089;BME280;45961;53.574;55.878;2023-08-08T03:16:37;99078.31;;;24.21;66.94
60089;BME280;45961;53.574;55.878;2023-08-08T03:17:41;99089.56;;;24.10;66.63
60089;BME280;45961;53.574;55.878;2023-08-08T03:18:42;99081.53;;;24.11;66.83
60089;BME280;45961;53.574;55.878;2023-08-08T03:19:43;99086.03;;;24.24;66.82
60089;BME280;45961;53.574;55.878;2023-08-08T03:20:45;99085.97;;;24.52;66.54
60089;BME280;45961;53.574;55.878;2023-08-08T03:21:48;99081.09;;;24.72;65.42
60089;BME280;45961;53.574;55.878;2023-08-08T03:22:49;99087.16;;;24.20;65.42
60089;BME280;45961;53.574;55.878;2023-08-08T03:23:50;99088.94;;;24.33;65.62
60089;BME280;45961;53.574;55.878;2023-08-08T03:24:52;99085.34;;;24.61;65.26
60089;BME280;45961;53.574;55.878;2023-08-08T03:25:53;99084.66;;;24.98;65.97
60089;BME280;45961;53.574;55.878;2023-08-08T03:26:54;99093.09;;;25.03;63.83
60089;BME280;45961;53.574;55.878;2023-08-08T03:27:56;99092.66;;;24.96;64.08
60089;BME280;45961;53.574;55.878;2023-08-08T03:28:57;99093.50;;;24.84;63.76
60089;BME280;45961;53.574;55.878;2023-08-08T03:30:05;99096.16;;;24.44;64.93
60089;BME280;45961;53.574;55.878;2023-08-08T03:31:13;99090.13;;;24.69;64.85
60089;BME280;45961;53.574;55.878;2023-08-08T03:32:16;99088.56;;;25.05;64.53
60089;BME280;45961;53.574;55.878;2023-08-08T03:33:17;99092.31;;;25.15;64.29
60089;BME280;45961;53.574;55.878;2023-08-08T03:34:18;99088.91;;;25.26;63.29
60089;BME280;45961;53.574;55.878;2023-08-08T03:35:19;99083.50;;;25.15;63.57
60089;BME280;45961;53.574;55.878;2023-08-08T03:36:20;99080.00;;;25.01;63.23
60089;BME280;45961;53.574;55.878;2023-08-08T03:37:21;99078.03;;;24.52;64.55
60089;BME280;45961;53.574;55.878;2023-08-08T03:38:23;99076.44;;;24.62;64.63
60089;BME280;45961;53.574;55.878;2023-08-08T03:39:24;99078.41;;;24.46;65.00
60089;BME280;45961;53.574;55.878;2023-08-08T03:40:24;99073.81;;;24.75;65.02
60089;BME280;45961;53.574;55.878;2023-08-08T03:41:25;99080.19;;;24.98;64.07
60089;BME280;45961;53.574;55.878;2023-08-08T03:42:26;99076.38;;;24.77;64.39
60089;BME280;45961;53.574;55.878;2023-08-08T03:43:27;99084.72;;;24.83;64.61
60089;BME280;45961;53.574;55.878;2023-08-08T03:44:28;99081.59;;;24.51;65.22
60089;BME280;45961;53.574;55.878;2023-08-08T03:45:29;99089.50;;;24.91;65.30
60089;BME280;45961;53.574;55.878;2023-08-08T03:46:29;99091.81;;;24.83;64.65
60089;BME280;45961;53.574;55.878;2023-08-08T03:47:30;99082.53;;;25.03;64.84
60089;BME280;45961;53.574;55.878;2023-08-08T03:48:31;99077.88;;;25.06;64.34
60089;BME280;45961;53.574;55.878;2023-08-08T03:49:32;99070.47;;;25.24;64.03
60089;BME280;45961;53.574;55.878;2023-08-08T03:50:34;99077.88;;;25.32;63.60
60089;BME280;45961;53.574;55.878;2023-08-08T03:51:35;99075.44;;;25.54;63.49
60089;BME280;45961;53.574;55.878;2023-08-08T03:52:37;99078.84;;;25.31;63.24
60089;BME280;45961;53.574;55.878;2023-08-08T03:53:41;99080.88;;;25.15;63.43
60089;BME280;45961;53.574;55.878;2023-08-08T03:54:42;99071.09;;;25.28;63.50
60089;BME280;45961;53.574;55.878;2023-08-08T03:55:43;99083.06;;;25.46;62.18
60089;BME280;45961;53.574;55.878;2023-08-08T03:56:45;99084.31;;;25.02;62.49
60089;BME280;45961;53.574;55.878;2023-08-08T03:57:46;99089.31;;;24.42;64.77
60089;BME280;45961;53.574;55.878;2023-08-08T03:58:47;99092.44;;;24.74;64.44
60089;BME280;45961;53.574;55.878;2023-08-08T03:59:48;99089.69;;;24.88;64.25
60089;BME280;45961;53.574;55.878;2023-08-08T04:00:49;99081.91;;;25.12;62.83
60089;BME280;45961;53.574;55.878;2023-08-08T04:01:50;99080.78;;;24.76;64.15
60089;BME280;45961;53.574;55.878;2023-08-08T04:02:51;99081.88;;;24.74;64.14
60089;BME280;45961;53.574;55.878;2023-08-08T04:03:52;99079.44;;;24.96;63.62
60089;BME280;45961;53.574;55.878;2023-08-08T04:04:53;99081.88;;;24.99;63.22
60089;BME280;45961;53.574;55.878;2023-08-08T04:05:54;99088.84;;;24.75;63.69
60089;BME280;45961;53.574;55.878;2023-08-08T04:06:54;99082.84;;;24.85;63.71
60089;BME280;45961;53.574;55.878;2023-08-08T04:07:55;99085.16;;;24.90;63.64
60089;BME280;45961;53.574;55.878;2023-08-08T04:08:56;99087.47;;;24.69;64.45
60089;BME280;45961;53.574;55.878;2023-08-08T04:09:57;99083.34;;;24.78;63.58
60089;BME280;45961;53.574;55.878;2023-08-08T04:10:58;99087.28;;;24.98;63.28
60089;BME280;45961;53.574;55.878;2023-08-08T04:11:58;99087.97;;;25.14;63.23
60089;BME280;45961;53.574;55.878;2023-08-08T04:12:59;99078.97;;;25.29;62.78
60089;BME280;45961;53.574;55.878;2023-08-08T04:14:00;99079.16;;;25.26;62.48
60089;BME280;45961;53.574;55.878;2023-08-08T04:15:01;99082.59;;;24.76;63.40
60089;BME280;45961;53.574;55.878;2023-08-08T04:16:03;99077.75;;;24.95;63.62
60089;BME280;45961;53.574;55.878;2023-08-08T04:17:03;99076.06;;;25.07;63.18
60089;BME280;45961;53.574;55.878;2023-08-08T04:18:05;99071.09;;;24.90;62.61
60089;BME280;45961;53.574;55.878;2023-08-08T04:19:07;99078.84;;;25.31;61.93
60089;BME280;45961;53.574;55.878;2023-08-08T04:20:08;99072.88;;;25.02;61.22
60089;BME280;45961;53.574;55.878;2023-08-08T04:21:10;99078.19;;;25.02;61.33
60089;BME280;45961;53.574;55.878;2023-08-08T04:22:11;99069.47;;;25.00;61.86
60089;BME280;45961;53.574;55.878;2023-08-08T04:23:11;99079.75;;;24.92;61.82
60089;BME280;45961;53.574;55.878;2023-08-08T04:24:12;99078.91;;;25.04;60.71
60089;BME280;45961;53.574;55.878;2023-08-08T04:25:13;99073.63;;;25.04;60.42
60089;BME280;45961;53.574;55.878;2023-08-08T04:26:14;99083.81;;;25.23;60.47
60089;BME280;45961;53.574;55.878;2023-08-08T04:27:15;99080.50;;;25.06;60.38
60089;BME280;45961;53.574;55.878;2023-08-08T04:28:16;99085.94;;;25.05;60.01
60089;BME280;45961;53.574;55.878;2023-08-08T04:29:16;99082.34;;;25.19;60.33
60089;BME280;45961;53.574;55.878;2023-08-08T04:30:17;99076.94;;;25.33;59.50
60089;BME280;45961;53.574;55.878;2023-08-08T04:31:18;99075.75;;;25.50;59.17
60089;BME280;45961;53.574;55.878;2023-08-08T04:32:19;99078.66;;;25.21;59.47
60089;BME280;45961;53.574;55.878;2023-08-08T04:33:19;99076.84;;;25.09;59.35
60089;BME280;45961;53.574;55.878;2023-08-08T04:34:22;99081.75;;;24.88;59.46
60089;BME280;45961;53.574;55.878;2023-08-08T04:35:22;99076.91;;;24.95;59.32
60089;BME280;45961;53.574;55.878;2023-08-08T04:36:23;99076.13;;;24.80;59.15
60089;BME280;45961;53.574;55.878;2023-08-08T04:37:24;99069.09;;;25.19;59.24
60089;BME280;45961;53.574;55.878;2023-08-08T04:38:25;99067.09;;;25.09;58.06
60089;BME280;45961;53.574;55.878;2023-08-08T04:39:26;99080.22;;;25.11;58.95
60089;BME280;45961;53.574;55.878;2023-08-08T04:40:26;99067.41;;;25.18;57.95
60089;BME280;45961;53.574;55.878;2023-08-08T04:41:27;99068.88;;;25.34;58.20
60089;BME280;45961;53.574;55.878;2023-08-08T04:42:28;99076.00;;;25.21;58.19
60089;BME280;45961;53.574;55.878;2023-08-08T04:43:29;99077.88;;;25.06;58.15
60089;BME280;45961;53.574;55.878;2023-08-08T04:44:30;99070.06;;;25.18;58.42
60089;BME280;45961;53.574;55.878;2023-08-08T04:45:31;99069.81;;;24.95;59.05
60089;BME280;45961;53.574;55.878;2023-08-08T04:46:31;99077.03;;;24.93;59.15
60089;BME280;45961;53.574;55.878;2023-08-08T04:47:32;99070.25;;;24.89;59.30
60089;BME280;45961;53.574;55.878;2023-08-08T04:48:33;99066.25;;;25.22;59.10
60089;BME280;45961;53.574;55.878;2023-08-08T04:49:33;99073.53;;;25.44;58.41
60089;BME280;45961;53.574;55.878;2023-08-08T04:50:34;99070.53;;;25.61;58.03
60089;BME280;45961;53.574;55.878;2023-08-08T04:51:35;99074.03;;;25.62;57.95
60089;BME280;45961;53.574;55.878;2023-08-08T04:52:36;99067.25;;;25.57;57.88
60089;BME280;45961;53.574;55.878;2023-08-08T04:53:36;99073.19;;;25.48;57.90
60089;BME280;45961;53.574;55.878;2023-08-08T04:54:37;99066.19;;;25.60;57.61
60089;BME280;45961;53.574;55.878;2023-08-08T04:55:38;99063.47;;;25.36;57.75
60089;BME280;45961;53.574;55.878;2023-08-08T04:56:39;99062.84;;;25.45;58.14
60089;BME280;45961;53.574;55.878;2023-08-08T04:57:40;99073.72;;;25.66;57.56
60089;BME280;45961;53.574;55.878;2023-08-08T04:58:41;99073.59;;;25.68;57.31
60089;BME280;45961;53.574;55.878;2023-08-08T04:59:41;99075.31;;;25.56;57.42
60089;BME280;45961;53.574;55.878;2023-08-08T05:00:43;99070.38;;;25.13;57.81
60089;BME280;45961;53.574;55.878;2023-08-08T05:01:43;99074.59;;;25.28;57.86
60089;BME280;45961;53.574;55.878;2023-08-08T05:02:44;99076.72;;;25.10;57.92
60089;BME280;45961;53.574;55.878;2023-08-08T05:03:45;99073.53;;;25.05;58.18
60089;BME280;45961;53.574;55.878;2023-08-08T05:04:46;99072.44;;;25.08;58.16
60089;BME280;45961;53.574;55.878;2023-08-08T05:05:46;99060.47;;;25.41;57.87
60089;BME280;45961;53.574;55.878;2023-08-08T05:06:47;99064.44;;;25.35;57.50
60089;BME280;45961;53.574;55.878;2023-08-08T05:07:48;99064.13;;;25.14;58.12
60089;BME280;45961;53.574;55.878;2023-08-08T05:08:51;99066.00;;;25.50;57.64
60089;BME280;45961;53.574;55.878;2023-08-08T05:09:52;99067.78;;;25.63;57.55
60089;BME280;45961;53.574;55.878;2023-08-08T05:10:53;99060.09;;;25.83;56.35
60089;BME280;45961;53.574;55.878;2023-08-08T05:11:53;99064.22;;;25.88;56.29
60089;BME280;45961;53.574;55.878;2023-08-08T05:12:54;99056.94;;;25.78;56.01
60089;BME280;45961;53.574;55.878;2023-08-08T05:13:55;99064.28;;;25.62;56.29
60089;BME280;45961;53.574;55.878;2023-08-08T05:14:56;99062.38;;;25.51;57.21
60089;BME280;45961;53.574;55.878;2023-08-08T05:15:57;99059.94;;;25.61;56.83
60089;BME280;45961;53.574;55.878;2023-08-08T05:16:58;99062.78;;;25.71;56.28
60089;BME280;45961;53.574;55.878;2023-08-08T05:17:58;99061.53;;;25.51;56.60
60089;BME280;45961;53.574;55.878;2023-08-08T05:19:00;99058.19;;;25.73;56.28
60089;BME280;45961;53.574;55.878;2023-08-08T05:20:00;99060.91;;;25.97;55.52
60089;BME280;45961;53.574;55.878;2023-08-08T05:21:01;99053.13;;;26.06;55.57
60089;BME280;45961;53.574;55.878;2023-08-08T05:22:02;99057.19;;;25.99;55.38
60089;BME280;45961;53.574;55.878;2023-08-08T05:23:03;99057.47;;;25.71;55.48